createdAt,value
2023-02-12T00:01:10.265Z,1
2023-02-12T00:05:08.203Z,1
2023-02-12T00:10:08.567Z,1
2023-02-12T00:15:08.527Z,1
2023-02-12T00:20:08.482Z,1
2023-02-12T00:25:08.472Z,1
2023-02-12T00:30:08.387Z,1
2023-02-12T00:35:08.330Z,1
2023-02-12T00:40:08.299Z,1
2023-02-12T00:45:08.305Z,1
2023-02-12T00:50:08.282Z,1
2023-02-12T00:55:08.286Z,1
2023-02-12T01:00:08.224Z,1
2023-02-12T01:05:08.236Z,1
2023-02-12T01:10:08.207Z,1
2023-02-12T01:15:08.137Z,1
2023-02-12T01:20:08.074Z,1
2023-02-12T01:25:09.172Z,1
2023-02-12T01:30:08.159Z,1
2023-02-12T01:35:08.123Z,1
2023-02-12T01:40:08.094Z,1
2023-02-12T01:45:08.032Z,1
2023-02-12T01:50:07.981Z,1
2023-02-12T01:55:08.044Z,1
2023-02-12T02:00:08.055Z,1
2023-02-12T02:05:08.042Z,1
2023-02-12T02:10:07.992Z,1
2023-02-12T02:15:07.937Z,1
2023-02-12T02:20:16.066Z,1
2023-02-12T02:25:08.029Z,1
2023-02-12T02:30:07.972Z,1
2023-02-12T02:35:07.918Z,1
2023-02-12T02:40:12.890Z,1
2023-02-12T02:45:08.842Z,1
2023-02-12T02:50:08.790Z,1
2023-02-12T02:55:08.757Z,1
2023-02-12T03:00:08.703Z,1
2023-02-12T03:05:08.676Z,1
2023-02-12T03:10:08.603Z,1
2023-02-12T03:15:08.590Z,1
2023-02-12T03:20:08.562Z,1
2023-02-12T03:25:08.508Z,1
2023-02-12T03:30:08.454Z,1
2023-02-12T03:35:08.430Z,1
2023-02-12T03:40:08.404Z,1
2023-02-12T03:45:08.333Z,1
2023-02-12T03:50:08.306Z,1
2023-02-12T03:55:08.292Z,1
2023-02-12T04:00:08.249Z,1
2023-02-12T04:05:08.216Z,1
2023-02-12T04:10:08.220Z,1
2023-02-12T04:15:08.151Z,1
2023-02-12T04:20:08.340Z,1
2023-02-12T04:25:08.297Z,1
2023-02-12T04:30:08.216Z,1
2023-02-12T04:35:08.184Z,1
2023-02-12T04:40:08.140Z,1
2023-02-12T04:45:08.072Z,1
2023-02-12T04:50:08.023Z,1
2023-02-12T04:55:07.994Z,1
2023-02-12T05:00:07.962Z,1
2023-02-12T05:05:02.053Z,1
2023-02-12T05:10:02.211Z,1
2023-02-12T05:15:02.256Z,1
2023-02-12T05:20:02.367Z,1
2023-02-12T05:25:02.457Z,1
2023-02-12T05:30:02.576Z,1
2023-02-12T05:35:02.631Z,1
2023-02-12T05:40:02.750Z,1
2023-02-12T05:45:02.953Z,1
2023-02-12T05:50:02.131Z,1
2023-02-12T05:55:02.481Z,1
2023-02-12T06:00:02.565Z,1
2023-02-12T06:05:02.726Z,1
2023-02-12T06:10:02.727Z,2
2023-02-12T06:15:02.901Z,2
2023-02-12T06:20:03.020Z,3
2023-02-12T06:25:02.126Z,3
2023-02-12T06:30:02.188Z,12
2023-02-12T06:35:02.297Z,12
2023-02-12T06:40:02.318Z,39
2023-02-12T06:45:02.339Z,39
2023-02-12T06:50:02.409Z,66
2023-02-12T06:55:02.364Z,66
2023-02-12T07:00:02.374Z,132
2023-02-12T07:05:02.486Z,132
2023-02-12T07:10:02.629Z,349
2023-02-12T07:15:02.626Z,349
2023-02-12T07:20:02.723Z,464
2023-02-12T07:25:02.812Z,464
2023-02-12T07:30:02.943Z,802
2023-02-12T07:35:01.958Z,802
2023-02-12T07:40:02.118Z,1000
2023-02-12T07:45:02.132Z,1000
2023-02-12T07:50:02.159Z,1000
2023-02-12T07:55:02.201Z,1000
2023-02-12T08:00:02.224Z,1000
2023-02-12T08:05:02.360Z,1000
2023-02-12T08:10:02.482Z,2000
2023-02-12T08:15:02.625Z,2000
2023-02-12T08:20:02.706Z,2000
2023-02-12T08:25:02.789Z,2000
2023-02-12T08:30:02.828Z,2000
2023-02-12T08:35:03.035Z,2000
2023-02-12T08:40:02.125Z,2000
2023-02-12T08:45:02.222Z,2000
2023-02-12T08:50:02.383Z,3000
2023-02-12T08:55:02.469Z,3000
2023-02-12T09:00:02.654Z,2000
2023-02-12T09:05:02.993Z,2000
2023-02-12T09:10:02.087Z,2000
2023-02-12T09:15:02.088Z,2000
2023-02-12T09:20:02.151Z,2000
2023-02-12T09:25:02.146Z,2000
2023-02-12T09:30:02.165Z,2000
2023-02-12T09:35:02.330Z,2000
2023-02-12T09:40:02.397Z,3000
2023-02-12T09:45:02.452Z,3000
2023-02-12T09:50:02.657Z,4000
2023-02-12T09:55:02.852Z,4000
2023-02-12T10:00:02.930Z,5000
2023-02-12T10:05:03.162Z,5000
2023-02-12T10:10:07.003Z,6000
2023-02-12T10:15:02.970Z,6000
2023-02-12T10:20:02.075Z,6000
2023-02-12T10:25:02.265Z,6000
2023-02-12T10:30:02.307Z,7000
2023-02-12T10:35:02.371Z,7000
2023-02-12T10:40:02.564Z,7000
2023-02-12T10:45:02.785Z,7000
2023-02-12T10:50:02.871Z,7000
2023-02-12T10:55:02.076Z,7000
2023-02-12T11:00:12.201Z,7000
2023-02-12T11:05:02.307Z,7000
2023-02-12T11:10:02.367Z,8000
2023-02-12T11:15:02.431Z,8000
2023-02-12T11:20:02.638Z,9000
2023-02-12T11:25:02.652Z,9000
2023-02-12T11:30:02.665Z,9000
2023-02-12T11:35:02.741Z,9000
2023-02-12T11:40:02.790Z,9000
2023-02-12T11:45:03.004Z,9000
2023-02-12T11:50:02.238Z,8000
2023-02-12T11:55:02.361Z,8000
2023-02-12T12:00:02.405Z,8000
2023-02-12T12:05:02.524Z,8000
2023-02-12T12:10:02.896Z,8000
2023-02-12T12:15:02.909Z,8000
2023-02-12T12:20:03.076Z,8000
2023-02-12T12:25:03.714Z,8000
2023-02-12T12:30:02.685Z,7000
2023-02-12T12:35:02.799Z,7000
2023-02-12T12:40:02.830Z,6000
2023-02-12T12:45:12.852Z,6000
2023-02-12T12:50:02.943Z,5000
2023-02-12T12:55:02.020Z,5000
2023-02-12T13:00:02.045Z,5000
2023-02-12T13:05:02.149Z,5000
2023-02-12T13:10:02.216Z,5000
2023-02-12T13:15:02.348Z,5000
2023-02-12T13:20:02.488Z,5000
2023-02-12T13:25:02.524Z,5000
2023-02-12T13:30:02.561Z,5000
2023-02-12T13:35:02.574Z,5000
2023-02-12T13:40:02.635Z,4000
2023-02-12T13:45:02.729Z,4000
2023-02-12T13:50:02.819Z,4000
2023-02-12T13:55:02.999Z,4000
2023-02-12T14:00:02.082Z,3000
2023-02-12T14:05:02.109Z,3000
2023-02-12T14:10:02.207Z,3000
2023-02-12T14:15:02.269Z,3000
2023-02-12T14:20:12.351Z,3000
2023-02-12T14:25:02.478Z,3000
2023-02-12T14:30:02.539Z,2000
2023-02-12T14:35:02.712Z,2000
2023-02-12T14:40:02.814Z,2000
2023-02-12T14:45:03.056Z,2000
2023-02-12T14:50:02.168Z,2000
2023-02-12T14:55:02.205Z,2000
2023-02-12T15:00:12.282Z,2000
2023-02-12T15:05:02.757Z,2000
2023-02-12T15:10:03.038Z,1000
2023-02-12T15:15:02.163Z,1000
2023-02-12T15:20:02.252Z,1000
2023-02-12T15:25:02.319Z,1000
2023-02-12T15:30:02.686Z,1000
2023-02-12T15:35:02.859Z,1000
2023-02-12T15:40:03.017Z,1000
2023-02-12T15:45:12.093Z,1000
2023-02-12T15:50:02.174Z,1000
2023-02-12T15:55:02.325Z,1000
2023-02-12T16:00:02.428Z,741
2023-02-12T16:05:02.464Z,741
2023-02-12T16:10:02.574Z,597
2023-02-12T16:15:02.725Z,597
2023-02-12T16:20:02.993Z,437
2023-02-12T16:25:02.082Z,437
2023-02-12T16:30:02.146Z,283
2023-02-12T16:35:02.150Z,283
2023-02-12T16:40:02.242Z,87
2023-02-12T16:45:02.303Z,87
2023-02-12T16:50:02.347Z,57
2023-02-12T16:55:02.367Z,57
2023-02-12T17:00:02.693Z,33
2023-02-12T17:05:02.728Z,23
2023-02-12T17:10:02.772Z,15
2023-02-12T17:15:02.828Z,15
2023-02-12T17:20:02.974Z,3
2023-02-12T17:25:02.054Z,3
2023-02-12T17:30:02.143Z,2
2023-02-12T17:35:02.272Z,2
2023-02-12T17:40:02.398Z,1
2023-02-12T17:45:02.457Z,1
2023-02-12T17:50:02.545Z,1
2023-02-12T17:55:02.627Z,1
2023-02-12T18:00:02.720Z,1
2023-02-12T18:05:02.750Z,1
2023-02-12T18:10:02.870Z,1
2023-02-12T18:15:02.898Z,1
2023-02-12T18:20:03.047Z,1
2023-02-12T18:25:02.219Z,1
2023-02-12T18:30:02.339Z,1
2023-02-12T18:35:02.624Z,1
2023-02-12T18:40:03.021Z,1
2023-02-12T18:45:02.173Z,1
2023-02-12T18:50:02.423Z,1
2023-02-12T18:55:02.584Z,1
2023-02-12T19:00:02.850Z,1
2023-02-12T19:05:02.991Z,1
2023-02-12T19:10:02.147Z,1
2023-02-12T19:15:02.311Z,1
2023-02-12T19:20:02.417Z,1
2023-02-12T19:25:02.479Z,1
2023-02-12T19:30:02.541Z,1
2023-02-12T19:35:02.630Z,1
2023-02-12T19:40:02.743Z,1
2023-02-12T19:45:02.797Z,1
2023-02-12T19:50:02.945Z,1
2023-02-12T19:55:02.040Z,1
2023-02-12T20:00:02.096Z,1
2023-02-12T20:05:02.094Z,1
2023-02-12T20:10:02.091Z,1
2023-02-12T20:15:02.150Z,1
2023-02-12T20:20:02.184Z,1
2023-02-12T20:25:02.225Z,1
2023-02-12T20:30:02.306Z,1
2023-02-12T20:35:02.420Z,1
2023-02-12T20:40:02.432Z,1
2023-02-12T20:45:02.497Z,1
2023-02-12T20:50:02.463Z,1
2023-02-12T20:55:02.814Z,1
2023-02-12T21:00:02.985Z,1
2023-02-12T21:05:02.092Z,1
2023-02-12T21:10:02.089Z,1
2023-02-12T21:15:02.145Z,1
2023-02-12T21:20:02.171Z,1
2023-02-12T21:25:02.221Z,1
2023-02-12T21:30:02.220Z,1
2023-02-12T21:35:02.264Z,1
2023-02-12T21:40:02.472Z,1
2023-02-12T21:45:02.521Z,1
2023-02-12T21:50:02.683Z,1
2023-02-12T21:55:02.755Z,1
2023-02-12T22:00:02.826Z,1
2023-02-12T22:05:02.895Z,1
2023-02-12T22:10:02.896Z,1
2023-02-12T22:15:02.922Z,1
2023-02-12T22:20:02.168Z,1
2023-02-12T22:25:02.266Z,1
2023-02-12T22:30:02.356Z,1
2023-02-12T22:35:02.343Z,1
2023-02-12T22:40:02.366Z,1
2023-02-12T22:45:02.429Z,1
2023-02-12T22:50:02.405Z,1
2023-02-12T22:55:02.481Z,1
2023-02-12T23:00:02.488Z,1
2023-02-12T23:05:15.396Z,1
2023-02-12T23:10:08.365Z,1
2023-02-12T23:15:08.276Z,1
2023-02-12T23:20:08.204Z,1
2023-02-12T23:25:08.216Z,1
2023-02-12T23:30:08.208Z,1
2023-02-12T23:35:08.146Z,1
2023-02-12T23:40:08.119Z,1
2023-02-12T23:45:08.079Z,1
2023-02-12T23:50:08.047Z,1
2023-02-12T23:55:08.061Z,1
